createdAt,value
2022-11-23T00:03:20.061Z,21.80
2022-11-23T00:09:13.824Z,23.10
2022-11-23T00:15:08.435Z,25.17
2022-11-23T00:21:07.714Z,19.53
2022-11-23T00:27:01.143Z,21.83
2022-11-23T00:32:56.182Z,19.03
2022-11-23T00:38:51.642Z,21.37
2022-11-23T00:44:45.131Z,21.23
2022-11-23T00:50:38.550Z,22.33
2022-11-23T00:56:34.626Z,20.93
2022-11-23T01:02:28.198Z,20.40
2022-11-23T01:08:21.619Z,21.80
2022-11-23T01:14:17.671Z,24.10
2022-11-23T01:20:11.322Z,21.70
2022-11-23T01:26:08.548Z,18.43
2022-11-23T01:32:03.360Z,19.47
2022-11-23T01:37:56.857Z,21.00
2022-11-23T01:43:50.324Z,22.50
2022-11-23T01:49:48.975Z,21.30
2022-11-23T01:55:43.866Z,24.60
2022-11-23T02:01:37.483Z,20.70
2022-11-23T02:07:34.210Z,20.00
2022-11-23T02:13:30.333Z,21.77
2022-11-23T02:19:36.527Z,21.73
2022-11-23T02:25:39.388Z,19.40
2022-11-23T02:31:34.802Z,18.73
2022-11-23T02:37:28.535Z,20.43
2022-11-23T02:43:22.026Z,19.17
2022-11-23T02:49:16.793Z,17.83
2022-11-23T02:55:11.098Z,18.37
2022-11-23T03:01:04.843Z,20.93
2022-11-23T03:06:59.557Z,18.00
2022-11-23T03:12:56.168Z,19.10
2022-11-23T03:18:52.769Z,16.43
2022-11-23T03:24:48.264Z,17.80
2022-11-23T03:30:44.646Z,17.00
2022-11-23T03:36:37.775Z,19.80
2022-11-23T03:42:32.802Z,18.50
2022-11-23T03:48:26.437Z,18.73
2022-11-23T03:54:20.324Z,17.20
2022-11-23T04:00:17.495Z,18.80
2022-11-23T04:06:12.695Z,18.20
2022-11-23T04:12:26.291Z,18.77
2022-11-23T04:18:21.094Z,17.40
2022-11-23T04:24:15.488Z,15.60
2022-11-23T04:30:11.635Z,16.30
2022-11-23T04:36:07.383Z,15.33
2022-11-23T04:42:01.119Z,15.97
2022-11-23T04:47:56.230Z,15.50
2022-11-23T04:53:52.974Z,15.30
2022-11-23T04:59:46.601Z,14.33
2022-11-23T05:05:42.496Z,15.60
2022-11-23T05:11:37.506Z,14.20
2022-11-23T05:17:31.085Z,19.97
2022-11-23T05:23:24.512Z,15.47
2022-11-23T05:29:21.531Z,15.87
2022-11-23T05:35:16.347Z,12.97
2022-11-23T05:41:10.235Z,13.80
2022-11-23T05:47:08.525Z,13.90
2022-11-23T05:53:04.034Z,13.10
2022-11-23T05:58:58.151Z,15.37
2022-11-23T06:04:53.906Z,14.43
2022-11-23T06:10:54.649Z,15.27
2022-11-23T06:16:49.994Z,13.00
2022-11-23T06:23:00.878Z,13.80
2022-11-23T06:28:55.189Z,18.03
2022-11-23T06:34:49.261Z,12.30
2022-11-23T06:40:44.230Z,13.10
2022-11-23T06:46:37.994Z,17.67
2022-11-23T06:52:31.568Z,14.83
2022-11-23T06:58:26.521Z,16.13
2022-11-23T07:04:20.309Z,13.87
2022-11-23T07:10:18.378Z,13.87
2022-11-23T07:16:16.468Z,12.87
2022-11-23T07:22:10.062Z,13.13
2022-11-23T07:28:06.785Z,15.77
2022-11-23T07:34:01.853Z,10.80
2022-11-23T07:39:58.502Z,10.47
2022-11-23T07:45:57.638Z,12.30
2022-11-23T07:51:54.057Z,12.13
2022-11-23T07:57:47.551Z,10.50
2022-11-23T08:03:41.127Z,8.87
2022-11-23T08:09:36.143Z,12.30
2022-11-23T08:15:30.156Z,8.40
2022-11-23T08:21:23.643Z,8.37
2022-11-23T08:27:18.455Z,9.77
2022-11-23T08:33:13.653Z,10.33
2022-11-23T08:39:07.908Z,8.00
2022-11-23T08:45:04.635Z,7.90
2022-11-23T08:51:01.053Z,7.90
2022-11-23T08:56:54.727Z,7.50
2022-11-23T09:02:49.561Z,7.40
2022-11-23T09:08:42.575Z,9.57
2022-11-23T09:14:36.318Z,7.23
2022-11-23T09:20:31.546Z,7.40
2022-11-23T09:26:25.642Z,8.10
2022-11-23T09:32:19.789Z,11.03
2022-11-23T09:38:14.710Z,6.50
2022-11-23T09:44:17.789Z,6.97
2022-11-23T09:50:16.972Z,7.50
2022-11-23T09:56:19.059Z,7.40
2022-11-23T10:02:21.397Z,10.30
2022-11-23T10:08:22.355Z,6.10
2022-11-23T10:14:37.338Z,5.30
2022-11-23T10:20:47.511Z,7.43
2022-11-23T10:26:43.996Z,6.17
2022-11-23T10:32:43.646Z,7.20
2022-11-23T10:38:37.127Z,6.80
2022-11-23T10:45:09.713Z,5.93
2022-11-23T10:51:22.713Z,7.50
2022-11-23T10:57:33.540Z,7.83
2022-11-23T11:03:26.964Z,7.50
2022-11-23T11:09:24.420Z,7.27
2022-11-23T11:15:18.671Z,8.93
2022-11-23T11:21:21.425Z,5.40
2022-11-23T11:27:19.059Z,7.23
2022-11-23T11:33:19.522Z,5.50
2022-11-23T11:39:21.655Z,6.30
2022-11-23T11:45:19.174Z,7.17
2022-11-23T11:51:15.681Z,8.40
2022-11-23T11:57:18.329Z,8.90
2022-11-23T12:03:21.249Z,7.57
2022-11-23T12:09:41.325Z,5.00
2022-11-23T12:15:49.591Z,7.90
2022-11-23T12:22:04.419Z,6.30
2022-11-23T12:28:08.523Z,10.43
2022-11-23T12:34:18.097Z,7.80
2022-11-23T12:40:39.984Z,4.87
2022-11-23T12:46:40.943Z,6.50
2022-11-23T12:52:48.915Z,5.87
2022-11-23T12:58:45.910Z,5.87
2022-11-23T13:04:55.626Z,5.80
2022-11-23T13:10:57.831Z,11.60
2022-11-23T13:17:15.531Z,9.20
2022-11-23T13:23:09.577Z,6.23
2022-11-23T13:29:37.935Z,8.50
2022-11-23T13:36:02.303Z,7.70
2022-11-23T13:42:02.873Z,4.37
2022-11-23T13:48:48.916Z,6.10
2022-11-23T13:54:35.391Z,3.73
2022-11-23T14:00:49.710Z,7.53
2022-11-23T14:06:48.861Z,3.37
2022-11-23T14:12:49.688Z,4.60
2022-11-23T14:19:03.107Z,5.97
2022-11-23T14:25:20.836Z,6.30
2022-11-23T14:31:24.460Z,6.53
2022-11-23T14:37:24.299Z,6.03
2022-11-23T14:43:19.760Z,7.93
2022-11-23T14:49:16.471Z,7.40
2022-11-23T14:55:21.715Z,6.30
2022-11-23T15:01:21.931Z,4.80
2022-11-23T15:07:22.324Z,7.70
2022-11-23T15:13:22.168Z,6.60
2022-11-23T15:19:20.064Z,6.53
2022-11-23T15:25:18.330Z,8.37
2022-11-23T15:31:36.714Z,7.23
2022-11-23T15:37:38.513Z,7.07
2022-11-23T15:43:33.375Z,5.67
2022-11-23T15:49:27.356Z,6.10
2022-11-23T15:55:23.286Z,7.83
2022-11-23T16:01:19.005Z,6.00
2022-11-23T16:07:18.578Z,5.13
2022-11-23T16:13:36.245Z,7.90
2022-11-23T16:19:34.186Z,7.00
2022-11-23T16:25:31.978Z,9.87
2022-11-23T16:31:29.508Z,6.40
2022-11-23T16:37:26.095Z,6.37
2022-11-23T16:43:20.292Z,7.47
2022-11-23T16:49:18.117Z,7.50
2022-11-23T16:55:13.134Z,8.10
2022-11-23T17:01:06.889Z,7.97
2022-11-23T17:07:00.322Z,10.60
2022-11-23T17:12:57.092Z,9.23
2022-11-23T17:18:50.708Z,8.80
2022-11-23T17:24:44.078Z,7.73
2022-11-23T17:30:38.499Z,9.00
2022-11-23T17:36:32.731Z,8.90
2022-11-23T17:42:26.197Z,10.20
2022-11-23T17:48:21.035Z,6.83
2022-11-23T17:54:14.500Z,9.10
2022-11-23T18:00:14.148Z,8.33
2022-11-23T18:13:06.108Z,8.80
2022-11-23T18:18:59.580Z,10.80
2022-11-23T18:24:54.109Z,8.23
2022-11-23T18:30:48.020Z,5.83
2022-11-23T18:37:01.430Z,8.83
2022-11-23T18:42:57.872Z,11.03
2022-11-23T18:48:51.954Z,7.50
2022-11-23T18:54:45.527Z,7.10
2022-11-23T19:00:40.494Z,8.00
2022-11-23T19:06:34.746Z,7.60
2022-11-23T19:12:28.334Z,7.60
2022-11-23T19:18:23.199Z,9.23
2022-11-23T19:24:16.843Z,9.30
2022-11-23T19:30:11.693Z,7.20
2022-11-23T19:36:08.529Z,6.50
2022-11-23T19:42:02.163Z,10.27
2022-11-23T19:47:55.206Z,6.20
2022-11-23T19:53:51.424Z,6.70
2022-11-23T19:59:44.879Z,7.03
2022-11-23T20:05:38.408Z,6.53
2022-11-23T20:11:34.723Z,7.40
2022-11-23T20:17:28.213Z,17.10
2022-11-23T20:23:21.673Z,5.90
2022-11-23T20:29:16.649Z,6.50
2022-11-23T20:35:10.490Z,5.50
2022-11-23T20:41:12.677Z,5.40
2022-11-23T20:47:07.172Z,7.40
2022-11-23T20:53:02.940Z,7.37
2022-11-23T20:59:00.076Z,6.40
2022-11-23T21:04:55.235Z,8.23
2022-11-23T21:11:06.514Z,10.00
2022-11-23T21:17:01.250Z,6.10
2022-11-23T21:22:56.035Z,5.93
2022-11-23T21:28:49.599Z,7.20
2022-11-23T21:34:43.127Z,8.87
2022-11-23T21:40:38.009Z,5.30
2022-11-23T21:46:31.553Z,7.93
2022-11-23T21:52:24.726Z,6.90
2022-11-23T21:58:19.477Z,4.97
2022-11-23T22:04:15.618Z,7.57
2022-11-23T22:10:14.554Z,6.47
2022-11-23T22:16:18.783Z,5.67
2022-11-23T22:22:12.459Z,9.00
2022-11-23T22:28:06.315Z,9.83
2022-11-23T22:34:01.984Z,5.57
2022-11-23T22:39:55.648Z,4.93
2022-11-23T22:45:49.884Z,6.90
2022-11-23T22:51:44.939Z,6.50
2022-11-23T22:57:39.192Z,5.30
2022-11-23T23:03:33.106Z,5.17
2022-11-23T23:09:28.248Z,5.67
2022-11-23T23:15:22.547Z,6.70
2022-11-23T23:21:21.233Z,4.90
2022-11-23T23:27:17.355Z,4.73
2022-11-23T23:33:11.415Z,4.60
2022-11-23T23:39:05.532Z,6.17
2022-11-23T23:45:02.734Z,4.60
2022-11-23T23:50:56.520Z,4.00
2022-11-23T23:56:49.683Z,8.17
